^^
MeteoGriva-Weather Station Historical Data
Daily Summary for August 24, 2020 Units:  English    Metric   Both
Daily Weekly Monthly Yearly Custom
  High: Low: Average:
Temperature: 49.3 °F 36.3 °F 41.4 °F
Dew Point: 38.7 °F 22.1 °F 32 °F
Humidity: 82.7% 54.1% 70%
Wind Speed: 2.1mph 0mph 0.1mph
Wind Gust: 7.6mph - -
Wind- - SSE
Pressure: 30.5 in 30.4 in -
Precipitation: 0 in    
Historical Graphs
 
 
Tabular Data for August 24, 2020
Time Temperature Dew Point Pressure Wind Wind Speed Wind Gust Humidity Rainfall Rate (Hourly) solar
00:04 36.5 °F 22.1 °F 30.5 in Calm   4.9 mph 55.1% 0 in 0 W/m2
00:09 36.9 °F 22.1 °F 30.5 in WNW 0.2 mph 2.5 mph 54.4% 0 in 0 W/m2
00:14 37.6 °F 22.5 °F 30.5 in Calm   2.5 mph 54.1% 0 in 0 W/m2
00:19 38.5 °F 23.7 °F 30.5 in Calm   2.5 mph 55% 0 in 0 W/m2
00:24 38.5 °F 23.5 °F 30.5 in Calm     54.7% 0 in 0 W/m2
00:29 38.5 °F 23.7 °F 30.5 in Calm     55% 0 in 0 W/m2
00:34 38.5 °F 23.7 °F 30.5 in Calm   4.9 mph 55% 0 in 0 W/m2
00:39 38.5 °F 24.1 °F 30.5 in Calm   4.9 mph 56% 0 in 0 W/m2
00:44 38.5 °F 24.1 °F 30.5 in Calm     56% 0 in 0 W/m2
00:49 38.5 °F 23.9 °F 30.5 in Calm     55.3% 0 in 0 W/m2
00:54 38.5 °F 24.1 °F 30.5 in West 0.2 mph 2.5 mph 56% 0 in 0 W/m2
00:59 38.3 °F 23.9 °F 30.5 in West 0.1 mph 4.9 mph 56.1% 0 in 0 W/m2
01:04 38.3 °F 24.3 °F 30.5 in WSW 0.1 mph 2.5 mph 56.7% 0 in 0 W/m2
01:09 38.3 °F 24.4 °F 30.5 in Calm   2.5 mph 57% 0 in 0 W/m2
01:14 38.3 °F 24.4 °F 30.5 in Calm     57% 0 in 0 W/m2
01:19 38.7 °F 24.8 °F 30.5 in Calm     57% 0 in 0 W/m2
01:24 38.7 °F 24.8 °F 30.5 in Calm     57% 0 in 0 W/m2
01:29 38.7 °F 25.2 °F 30.5 in Calm   4.9 mph 58% 0 in 0 W/m2
01:34 38.8 °F 25.2 °F 30.5 in Calm     57.7% 0 in 0 W/m2
01:39 39.4 °F 25.3 °F 30.5 in West 0.1 mph 2.5 mph 57.2% 0 in 0 W/m2
01:44 39.2 °F 26.1 °F 30.5 in Calm     59.1% 0 in 0 W/m2
01:49 39.2 °F 26.1 °F 30.5 in Calm     59% 0 in 0 W/m2
01:54 39 °F 26.1 °F 30.5 in Calm     59.7% 0 in 0 W/m2
01:59 38.1 °F 25.5 °F 30.5 in Calm     60% 0 in 0 W/m2
02:04 38.1 °F 25.2 °F 30.5 in Calm     59.4% 0 in 0 W/m2
02:09 38.1 °F 25 °F 30.5 in Calm   4.9 mph 59% 0 in 0 W/m2
02:14 38.1 °F 25.3 °F 30.5 in Calm     59.6% 0 in 0 W/m2
02:19 38.3 °F 25.7 °F 30.5 in Calm     60% 0 in 0 W/m2
02:24 38.3 °F 25.7 °F 30.5 in Calm   2.5 mph 60.2% 0 in 0 W/m2
02:29 38.3 °F 26.2 °F 30.5 in Calm     61.2% 0 in 0 W/m2
02:34 38.1 °F 25.9 °F 30.5 in Calm     61.1% 0 in 0 W/m2
02:39 38.1 °F 25.3 °F 30.5 in Calm   2.5 mph 59.6% 0 in 0 W/m2
02:44 38.1 °F 25.2 °F 30.5 in Calm   2.5 mph 59.3% 0 in 0 W/m2
02:49 38.3 °F 25 °F 30.5 in Calm     58.4% 0 in 0 W/m2
02:54 38.3 °F 25.3 °F 30.5 in West 0.2 mph 2.5 mph 59.4% 0 in 0 W/m2
02:59 38.7 °F 25.5 °F 30.5 in Calm   2.5 mph 59% 0 in 0 W/m2
03:04 38.7 °F 26.1 °F 30.5 in WNW 0.2 mph 4.9 mph 60% 0 in 0 W/m2
03:09 38.7 °F 26.1 °F 30.5 in Calm     60% 0 in 0 W/m2
03:14 38.5 °F 25.9 °F 30.5 in Calm     60% 0 in 0 W/m2
03:19 38.3 °F 25.5 °F 30.5 in Calm     59.6% 0 in 0 W/m2
03:24 38.3 °F 25.2 °F 30.5 in Calm     59% 0 in 0 W/m2
03:29 38.3 °F 25.2 °F 30.5 in Calm     59% 0 in 0 W/m2
03:34 38.3 °F 25.3 °F 30.5 in Calm     59.1% 0 in 0 W/m2
03:39 37.9 °F 25.3 °F 30.5 in Calm     60% 0 in 0 W/m2
03:44 37.8 °F 24.8 °F 30.5 in Calm     59% 0 in 0 W/m2
03:49 37.8 °F 24.3 °F 30.5 in Calm     58% 0 in 0 W/m2
03:54 37.9 °F 25 °F 30.5 in Calm     58.9% 0 in 0 W/m2
03:59 38.1 °F 25 °F 30.5 in Calm     59% 0 in 0 W/m2
04:04 38.1 °F 25 °F 30.5 in Calm     59% 0 in 0 W/m2
04:09 37.9 °F 25 °F 30.5 in Calm     59.2% 0 in 0 W/m2
04:14 37.9 °F 25 °F 30.5 in Calm     59% 0 in 0 W/m2
04:19 37.9 °F 25 °F 30.5 in Calm     59% 0 in 0 W/m2
04:24 37.8 °F 25.2 °F 30.5 in WSW 0.1 mph 2.5 mph 60% 0 in 0 W/m2
04:29 37.8 °F 25.3 °F 30.5 in Calm     60.2% 0 in 0 W/m2
04:34 37.6 °F 25 °F 30.5 in Calm     60% 0 in 0 W/m2
04:39 37.2 °F 25 °F 30.5 in West 0.1 mph 2.5 mph 60.7% 0 in 0 W/m2
04:44 37.2 °F 24.6 °F 30.5 in Calm   2.5 mph 60.1% 0 in 0 W/m2
04:49 37.2 °F 24.6 °F 30.5 in Calm   2.5 mph 60% 0 in 0 W/m2
04:54 37.4 °F 25.2 °F 30.5 in WNW 0.1 mph 2.5 mph 61% 0 in 0 W/m2
04:59 37.6 °F 25.2 °F 30.5 in Calm     60.7% 0 in 0 W/m2
05:04 37.6 °F 25.3 °F 30.5 in Calm     61% 0 in 0 W/m2
05:09 37.6 °F 25.7 °F 30.5 in NW 0.1 mph 2.5 mph 61.9% 0 in 0 W/m2
05:14 37.6 °F 25.9 °F 30.5 in Calm   2.5 mph 62.7% 0 in 0 W/m2
05:19 37.8 °F 25.9 °F 30.5 in Calm     62.1% 0 in 0 W/m2
05:24 37.6 °F 25.7 °F 30.5 in Calm     62% 0 in 0 W/m2
05:29 37.6 °F 25.7 °F 30.5 in Calm     62% 0 in 0 W/m2
05:34 37.6 °F 25.9 °F 30.5 in Calm     62.6% 0 in 0 W/m2
05:39 37 °F 25.7 °F 30.5 in Calm   2.5 mph 63% 0 in 0 W/m2
05:44 36.9 °F 25.7 °F 30.5 in Calm     63.3% 0 in 0 W/m2
05:49 36.9 °F 25.9 °F 30.5 in Calm     63.9% 0 in 0 W/m2
05:54 36.9 °F 26.2 °F 30.5 in Calm   4.9 mph 65% 0 in 0 W/m2
05:59 37 °F 26.1 °F 30.5 in Calm     64.1% 0 in 0 W/m2
06:04 37 °F 26.4 °F 30.5 in Calm   2.5 mph 64.9% 0 in 0 W/m2
06:09 37 °F 26.4 °F 30.5 in Calm     65% 0 in 0 W/m2
06:14 37 °F 26.4 °F 30.5 in Calm     65.2% 0 in 0 W/m2
06:19 37 °F 26.8 °F 30.5 in Calm   2.5 mph 65.9% 0 in 0 W/m2
06:24 36.9 °F 26.8 °F 30.5 in Calm     66.2% 0 in 0 W/m2
06:29 36.9 °F 27.3 °F 30.5 in Calm     68.2% 0 in 0 W/m2
06:34 36.7 °F 27.9 °F 30.5 in Calm     70% 0 in 0 W/m2
06:39 36.5 °F 28 °F 30.5 in Calm     71% 0 in 0 W/m2
06:44 36.3 °F 27.9 °F 30.5 in Calm     71% 0 in 0 W/m2
06:49 36.3 °F 27.9 °F 30.5 in Calm     71% 0 in 0 W/m2
06:54 36.5 °F 28 °F 30.5 in Calm     71% 0 in 0 W/m2
06:59 36.9 °F 28.4 °F 30.5 in Calm     71% 0 in 0 W/m2
07:04 37 °F 28.6 °F 30.5 in Calm     71% 0 in 0 W/m2
07:09 36.9 °F 28.2 °F 30.5 in Calm     70.6% 0 in 0 W/m2
07:14 36.9 °F 28.2 °F 30.5 in Calm     70.3% 0 in 0 W/m2
07:19 36.9 °F 28.4 °F 30.5 in Calm     71.4% 0 in 0 W/m2
07:24 36.5 °F 28.6 °F 30.5 in Calm     72.4% 0 in 0 W/m2
07:29 36.5 °F 28.8 °F 30.5 in Calm     73% 0 in 0 W/m2
07:34 36.7 °F 28.9 °F 30.5 in Calm     73.8% 0 in 0 W/m2
07:39 36.7 °F 29.3 °F 30.5 in Calm     74.2% 0 in 0 W/m2
07:44 36.7 °F 29.8 °F 30.5 in Calm     75.9% 0 in 0 W/m2
07:49 36.9 °F 29.5 °F 30.5 in Calm     74.4% 0 in 0 W/m2
07:54 36.9 °F 29.7 °F 30.5 in Calm     74.9% 0 in 2 W/m2
07:59 37 °F 30 °F 30.5 in Calm     75.6% 0 in 5 W/m2
08:04 37.2 °F 30.9 °F 30.5 in Calm     77.7% 0 in 8 W/m2
08:09 37.2 °F 30.9 °F 30.5 in Calm     78% 0 in 13 W/m2
08:14 37.2 °F 31.3 °F 30.5 in Calm     78.9% 0 in 19 W/m2
08:19 37.6 °F 31.6 °F 30.5 in Calm     79% 0 in 23 W/m2
08:24 38.1 °F 31.8 °F 30.5 in Calm     78.2% 0 in 28 W/m2
08:29 38.1 °F 31.6 °F 30.5 in Calm     77.3% 0 in 33 W/m2
08:34 38.5 °F 31.5 °F 30.5 in Calm     75.3% 0 in 37 W/m2
08:39 39.4 °F 31.6 °F 30.5 in Calm     73.4% 0 in 42 W/m2
08:44 40.5 °F 32.4 °F 30.5 in Calm     72.3% 0 in 46 W/m2
08:49 40.5 °F 32.5 °F 30.5 in Calm     73% 0 in 51 W/m2
08:54 40.5 °F 32.7 °F 30.5 in Calm     74% 0 in 55 W/m2
08:59 40.3 °F 32.5 °F 30.5 in Calm     73.2% 0 in 59 W/m2
09:04 40.5 °F 32.9 °F 30.5 in Calm     74.1% 0 in 62 W/m2
09:09 40.5 °F 33.1 °F 30.5 in Calm     75.1% 0 in 66 W/m2
09:14 40.5 °F 32.9 °F 30.5 in Calm     74.4% 0 in 68 W/m2
09:19 40.8 °F 33.1 °F 30.5 in Calm     73.4% 0 in 71 W/m2
09:24 41.4 °F 33.3 °F 30.5 in Calm     72.9% 0 in 74 W/m2
09:29 41.5 °F 33.3 °F 30.5 in Calm     72% 0 in 76 W/m2
09:34 41.9 °F 33.6 °F 30.5 in Calm     72% 0 in 78 W/m2
09:39 42.3 °F 35.1 °F 30.5 in Calm     75.6% 0 in 80 W/m2
09:44 42.4 °F 34.7 °F 30.5 in Calm     74% 0 in 81 W/m2
09:49 42.4 °F 34.7 °F 30.5 in Calm     74% 0 in 82 W/m2
09:54 42.4 °F 33.6 °F 30.5 in Calm     70.7% 0 in 83 W/m2
09:59 43 °F 33.6 °F 30.5 in Calm     69.3% 0 in 84 W/m2
10:04 43.7 °F 34.5 °F 30.5 in Calm     69.7% 0 in 85 W/m2
10:09 44.1 °F 34.3 °F 30.5 in Calm     68.7% 0 in 86 W/m2
10:14 44.2 °F 35.2 °F 30.5 in NE 0.1 mph 2.5 mph 70.4% 0 in 87 W/m2
10:19 44.6 °F 35.2 °F 30.5 in ESE 0.4 mph 4.9 mph 69.4% 0 in 88 W/m2
10:24 45.3 °F 36 °F 30.5 in SE 0.1 mph 2.5 mph 69.3% 0 in 89 W/m2
10:29 45.5 °F 35.6 °F 30.5 in East 0.1 mph 2.5 mph 67.8% 0 in 89 W/m2
10:34 45.5 °F 35.2 °F 30.5 in Calm   2.5 mph 67.2% 0 in 90 W/m2
10:39 45.5 °F 35.1 °F 30.5 in Calm   2.5 mph 66.7% 0 in 91 W/m2
10:44 44.8 °F 34.7 °F 30.5 in ESE 0.5 mph 4.9 mph 67.7% 0 in 92 W/m2
10:49 44.8 °F 34.5 °F 30.5 in Calm     67.1% 0 in 94 W/m2
10:54 45 °F 34.3 °F 30.5 in Calm   2.5 mph 65.8% 0 in 96 W/m2
10:59 45.3 °F 34.5 °F 30.5 in Calm     65.6% 0 in 98 W/m2
11:04 46.8 °F 35.4 °F 30.5 in SE 0.1 mph 4.9 mph 64.8% 0 in 101 W/m2
11:09 46.6 °F 35.4 °F 30.5 in East 0.1 mph 2.5 mph 65.1% 0 in 103 W/m2
11:14 46.4 °F 36.1 °F 30.5 in Calm   2.5 mph 67.3% 0 in 106 W/m2
11:19 46 °F 35.6 °F 30.5 in Calm   2.5 mph 66.4% 0 in 109 W/m2
11:24 46.2 °F 35.2 °F 30.5 in ESE 0.5 mph 4.9 mph 65.3% 0 in 112 W/m2
11:29 46 °F 35.2 °F 30.5 in East 0.4 mph 4.9 mph 66% 0 in 115 W/m2
11:34 45.7 °F 35.6 °F 30.5 in NE 0.1 mph 4.9 mph 67.6% 0 in 119 W/m2
11:39 45.3 °F 35.4 °F 30.5 in NE 0.2 mph 2.5 mph 68% 0 in 122 W/m2
11:44 45.1 °F 35.1 °F 30.5 in Calm   2.5 mph 67.2% 0 in 128 W/m2
11:49 45.1 °F 35.1 °F 30.5 in East 0.4 mph 2.5 mph 67.3% 0 in 131 W/m2
11:54 45.1 °F 34.7 °F 30.5 in Calm   2.5 mph 66.4% 0 in 126 W/m2
11:59 45.5 °F 34.3 °F 30.5 in South 0.5 mph 4.9 mph 65.3% 0 in 102 W/m2
12:04 46.2 °F 35.8 °F 30.5 in SE 0.4 mph 4.9 mph 67% 0 in 91 W/m2
12:09 46 °F 36.3 °F 30.5 in NE 0.6 mph 4.9 mph 68.8% 0 in 91 W/m2
12:14 45.5 °F 36.3 °F 30.5 in Calm   2.5 mph 69.9% 0 in 90 W/m2
12:19 45.3 °F 35.6 °F 30.5 in ENE 0.5 mph 2.5 mph 68.8% 0 in 95 W/m2
12:24 45.9 °F 36 °F 30.5 in ESE 0.4 mph 4.9 mph 68.2% 0 in 152 W/m2
12:29 45.9 °F 35.6 °F 30.5 in East 0.2 mph 2.5 mph 67% 0 in 162 W/m2
12:34 46 °F 35.8 °F 30.5 in SE 0.3 mph 4.9 mph 67% 0 in 184 W/m2
12:39 46 °F 36 °F 30.5 in Calm     67.2% 0 in 193 W/m2
12:44 45 °F 35.4 °F 30.5 in SE 0.5 mph 7.6 mph 69.2% 0 in 208 W/m2
12:49 45.1 °F 35.2 °F 30.5 in East 0.4 mph 4.9 mph 68.4% 0 in 215 W/m2
12:54 45.3 °F 35.6 °F 30.5 in Calm   2.5 mph 68.7% 0 in 224 W/m2
12:59 45.5 °F 35.8 °F 30.5 in ESE 0.4 mph 4.9 mph 68.1% 0 in 237 W/m2
13:04 46.2 °F 36.5 °F 30.5 in ESE 1 mph 7.6 mph 68.4% 0 in 248 W/m2
13:09 46.2 °F 36.7 °F 30.5 in Calm   2.5 mph 69.2% 0 in 253 W/m2
13:14 46.2 °F 36.9 °F 30.5 in ENE 0.3 mph 4.9 mph 69.3% 0 in 270 W/m2
13:19 46.2 °F 36.1 °F 30.5 in SSE 0.2 mph 4.9 mph 67.2% 0 in 279 W/m2
13:24 47.7 °F 37.4 °F 30.5 in East 1 mph 7.6 mph 67.3% 0 in 282 W/m2
13:29 47.7 °F 37.6 °F 30.5 in East 0.9 mph 7.6 mph 68.1% 0 in 282 W/m2
13:34 47.3 °F 37.8 °F 30.5 in East 0.4 mph 4.9 mph 69.6% 0 in 287 W/m2
13:39 47.1 °F 37 °F 30.5 in Calm   4.9 mph 68.2% 0 in 289 W/m2
13:44 46.8 °F 36.5 °F 30.5 in SSE 0.4 mph 4.9 mph 67.7% 0 in 294 W/m2
13:49 46.8 °F 36.3 °F 30.5 in Calm   2.5 mph 66.7% 0 in 296 W/m2
13:54 46.9 °F 36.7 °F 30.5 in South 0.2 mph 2.5 mph 67.7% 0 in 298 W/m2
13:59 47.1 °F 36.9 °F 30.5 in ESE 0.9 mph 4.9 mph 67.3% 0 in 298 W/m2
14:04 47.7 °F 37.2 °F 30.5 in ESE 0.7 mph 4.9 mph 67.2% 0 in 298 W/m2
14:09 47.8 °F 37.2 °F 30.5 in South 1.1 mph 4.9 mph 66.6% 0 in 297 W/m2
14:14 48 °F 37.4 °F 30.5 in South 1 mph 4.9 mph 66.7% 0 in 297 W/m2
14:19 48.2 °F 37.4 °F 30.5 in SSE 1.1 mph 7.6 mph 66.4% 0 in 298 W/m2
14:24 48.4 °F 37.8 °F 30.5 in South 0.7 mph 7.6 mph 66.7% 0 in 299 W/m2
14:29 48.4 °F 37.8 °F 30.4 in SSE 0.4 mph 4.9 mph 66.4% 0 in 293 W/m2
14:34 48.6 °F 37.6 °F 30.4 in SSW 0.7 mph 4.9 mph 65.6% 0 in 294 W/m2
14:39 48.7 °F 37.9 °F 30.4 in SSE 2.1 mph 7.6 mph 66.1% 0 in 293 W/m2
14:44 48.4 °F 38.1 °F 30.4 in SSE 1.1 mph 7.6 mph 67.4% 0 in 288 W/m2
14:49 48.2 °F 37.6 °F 30.4 in SSE 0.4 mph 4.9 mph 66.6% 0 in 285 W/m2
14:54 48.4 °F 37.8 °F 30.4 in South 0.7 mph 7.6 mph 66.8% 0 in 282 W/m2
14:59 48.6 °F 37.8 °F 30.4 in SSE 1.1 mph 4.9 mph 66% 0 in 276 W/m2
15:04 48 °F 37.8 °F 30.4 in SE 1.1 mph 4.9 mph 67.1% 0 in 272 W/m2
15:09 47.8 °F 37.6 °F 30.4 in Calm   4.9 mph 67.3% 0 in 253 W/m2
15:14 48 °F 37.6 °F 30.4 in SE 1.3 mph 7.6 mph 67.1% 0 in 260 W/m2
15:19 48 °F 37.2 °F 30.4 in South 0.1 mph 7.6 mph 66.1% 0 in 256 W/m2
15:24 48.9 °F 38.1 °F 30.4 in South 0.9 mph 4.9 mph 66% 0 in 252 W/m2
15:29 49.3 °F 38.5 °F 30.4 in Calm   4.9 mph 66% 0 in 245 W/m2
15:34 49.1 °F 38.5 °F 30.4 in SSE 0.6 mph 4.9 mph 66.5% 0 in 239 W/m2
15:39 48.9 °F 38.3 °F 30.4 in SSE 0.9 mph 7.6 mph 66.3% 0 in 232 W/m2
15:44 48.7 °F 38.1 °F 30.4 in Calm   4.9 mph 66.3% 0 in 225 W/m2
15:49 48.6 °F 37.9 °F 30.4 in Calm     66.3% 0 in 217 W/m2
15:54 48.6 °F 37.8 °F 30.4 in Calm     65.7% 0 in 210 W/m2
15:59 48.7 °F 37.6 °F 30.4 in Calm     65% 0 in 205 W/m2
16:04 48.9 °F 37.9 °F 30.4 in Calm     65.3% 0 in 183 W/m2
16:09 48.9 °F 38.1 °F 30.4 in Calm     66.3% 0 in 57 W/m2
16:14 48.6 °F 38.7 °F 30.4 in ENE 0.2 mph 2.5 mph 68.4% 0 in 53 W/m2
16:19 48 °F 38.7 °F 30.4 in Calm     69.9% 0 in 50 W/m2
16:24 46.4 °F 37.2 °F 30.4 in SSE 0.1 mph 2.5 mph 70% 0 in 47 W/m2
16:29 45.3 °F 36.5 °F 30.4 in SSE 0.1 mph 2.5 mph 70.9% 0 in 43 W/m2
16:34 45.3 °F 36.5 °F 30.4 in Calm     71.2% 0 in 39 W/m2
16:39 45.1 °F 36.7 °F 30.4 in Calm     72.1% 0 in 37 W/m2
16:44 44.4 °F 36.3 °F 30.4 in Calm     73% 0 in 33 W/m2
16:49 43.9 °F 36.1 °F 30.4 in Calm     73.9% 0 in 31 W/m2
16:54 43.9 °F 36.1 °F 30.4 in Calm     74.2% 0 in 28 W/m2
16:59 43.7 °F 36.3 °F 30.4 in Calm     75% 0 in 25 W/m2
17:04 43.2 °F 35.8 °F 30.4 in Calm     75.4% 0 in 22 W/m2
17:09 42.4 °F 35.4 °F 30.4 in Calm     76% 0 in 19 W/m2
17:14 42.4 °F 35.4 °F 30.4 in Calm     76% 0 in 16 W/m2
17:19 42.4 °F 35.4 °F 30.4 in Calm     76% 0 in 12 W/m2
17:24 42.3 °F 35.2 °F 30.4 in Calm     76% 0 in 9 W/m2
17:29 42.1 °F 35.1 °F 30.4 in Calm     76% 0 in 6 W/m2
17:34 42.1 °F 35.2 °F 30.4 in Calm     76.3% 0 in 4 W/m2
17:39 42.1 °F 35.6 °F 30.4 in Calm     77.4% 0 in 0 W/m2
17:44 41.7 °F 35.4 °F 30.4 in Calm     78% 0 in 0 W/m2
17:49 41.4 °F 35.1 °F 30.4 in Calm     78% 0 in 0 W/m2
17:54 41.2 °F 34.9 °F 30.4 in Calm     78% 0 in 0 W/m2
17:59 41.2 °F 34.9 °F 30.4 in Calm     78% 0 in 0 W/m2
18:04 41 °F 34.9 °F 30.4 in Calm     78.2% 0 in 0 W/m2
18:09 40.6 °F 34.7 °F 30.4 in Calm     79% 0 in 0 W/m2
18:14 40.6 °F 34.7 °F 30.4 in Calm     79% 0 in 0 W/m2
18:19 40.6 °F 34.7 °F 30.4 in Calm     79% 0 in 0 W/m2
18:24 40.8 °F 34.5 °F 30.4 in Calm     78.1% 0 in 0 W/m2
18:29 40.8 °F 34.5 °F 30.4 in Calm     78% 0 in 0 W/m2
18:34 41 °F 34.7 °F 30.4 in Calm     78% 0 in 0 W/m2
18:39 41 °F 34.7 °F 30.4 in Calm     78% 0 in 0 W/m2
18:44 40.8 °F 34.5 °F 30.4 in Calm     78% 0 in 0 W/m2
18:49 40.8 °F 34.5 °F 30.4 in Calm     78% 0 in 0 W/m2
18:54 40.8 °F 34.5 °F 30.4 in Calm     78% 0 in 0 W/m2
18:59 40.8 °F 34.5 °F 30.4 in Calm     78% 0 in 0 W/m2
19:04 40.8 °F 34.3 °F 30.4 in Calm     77.7% 0 in 0 W/m2
19:09 40.8 °F 34.5 °F 30.4 in Calm     77.8% 0 in 0 W/m2
19:14 40.8 °F 34.5 °F 30.4 in Calm     77.9% 0 in 0 W/m2
19:19 40.8 °F 34.3 °F 30.4 in Calm     77.6% 0 in 0 W/m2
19:24 40.8 °F 34.5 °F 30.4 in Calm     78% 0 in 0 W/m2
19:29 40.6 °F 34.3 °F 30.4 in Calm     78% 0 in 0 W/m2
19:34 40.6 °F 34.3 °F 30.4 in Calm     78% 0 in 0 W/m2
19:39 40.6 °F 34.3 °F 30.4 in Calm     78% 0 in 0 W/m2
19:44 40.6 °F 34.3 °F 30.4 in Calm     77.8% 0 in 0 W/m2
19:49 41 °F 34.3 °F 30.4 in Calm     77% 0 in 0 W/m2
19:54 41 °F 34.3 °F 30.4 in Calm     77% 0 in 0 W/m2
19:59 41 °F 34.3 °F 30.4 in Calm     77% 0 in 0 W/m2
20:04 40.8 °F 34.3 °F 30.4 in Calm     77.4% 0 in 0 W/m2
20:09 40.6 °F 34.3 °F 30.4 in Calm     78.1% 0 in 0 W/m2
20:14 40.5 °F 34.5 °F 30.4 in Calm     79.3% 0 in 0 W/m2
20:19 40.5 °F 34.5 °F 30.4 in Calm     79% 0 in 0 W/m2
20:24 40.5 °F 34.3 °F 30.4 in Calm     79% 0 in 0 W/m2
20:29 40.3 °F 34.2 °F 30.4 in Calm     78.6% 0 in 0 W/m2
20:34 40.3 °F 34.3 °F 30.4 in Calm     78.9% 0 in 0 W/m2
20:39 40.3 °F 34.3 °F 30.4 in Calm     79.6% 0 in 0 W/m2
20:44 40.1 °F 34.3 °F 30.4 in Calm     79.7% 0 in 0 W/m2
20:49 39.9 °F 34.2 °F 30.4 in Calm     79% 0 in 0 W/m2
20:54 39.9 °F 34 °F 30.4 in Calm     79% 0 in 0 W/m2
20:59 40.1 °F 34.2 °F 30.4 in Calm     78.8% 0 in 0 W/m2
21:04 40.1 °F 33.8 °F 30.4 in Calm     78% 0 in 0 W/m2
21:09 40.6 °F 34.5 °F 30.4 in Calm     78.4% 0 in 0 W/m2
21:14 40.6 °F 34.3 °F 30.4 in Calm     78.3% 0 in 0 W/m2
21:19 40.6 °F 34.3 °F 30.4 in Calm     78% 0 in 0 W/m2
21:24 40.6 °F 34.5 °F 30.4 in Calm     78.4% 0 in 0 W/m2
21:29 41 °F 35.1 °F 30.4 in Calm     78.8% 0 in 0 W/m2
21:34 41 °F 34.7 °F 30.4 in Calm     78.1% 0 in 0 W/m2
21:39 41 °F 34.7 °F 30.4 in Calm     78% 0 in 0 W/m2
21:44 41 °F 34.7 °F 30.4 in Calm     78% 0 in 0 W/m2
21:49 41 °F 35.1 °F 30.4 in Calm     79% 0 in 0 W/m2
21:54 40.8 °F 34.9 °F 30.4 in Calm     79% 0 in 0 W/m2
21:59 41 °F 35.1 °F 30.4 in Calm     79% 0 in 0 W/m2
22:04 41 °F 35.1 °F 30.4 in Calm     79% 0 in 0 W/m2
22:09 41 °F 35.1 °F 30.4 in Calm     79% 0 in 0 W/m2
22:14 40.8 °F 35.1 °F 30.4 in Calm     79% 0 in 0 W/m2
22:19 40.8 °F 35.1 °F 30.4 in Calm     80% 0 in 0 W/m2
22:24 40.8 °F 35.2 °F 30.4 in Calm     80.4% 0 in 0 W/m2
22:29 40.3 °F 34.9 °F 30.4 in Calm     81% 0 in 0 W/m2
22:34 40.3 °F 34.9 °F 30.4 in Calm     81% 0 in 0 W/m2
22:39 40.1 °F 34.7 °F 30.4 in Calm     81% 0 in 0 W/m2
22:44 40.1 °F 34.5 °F 30.4 in Calm     80.4% 0 in 0 W/m2
22:49 39.9 °F 34.5 °F 30.4 in Calm     81% 0 in 0 W/m2
22:54 39.7 °F 34.7 °F 30.4 in Calm     81.9% 0 in 0 W/m2
22:59 39.7 °F 34.9 °F 30.4 in Calm     82.7% 0 in 0 W/m2
23:04 39.6 °F 34.3 °F 30.4 in Calm     81.7% 0 in 0 W/m2
23:09 39.6 °F 34.3 °F 30.4 in Calm     81.3% 0 in 0 W/m2
23:14 39.6 °F 34.5 °F 30.4 in Calm     82% 0 in 0 W/m2
23:19 39.6 °F 34.3 °F 30.4 in Calm     81.4% 0 in 0 W/m2
23:24 39.6 °F 34.2 °F 30.4 in Calm     81% 0 in 0 W/m2
23:29 39 °F 33.8 °F 30.4 in Calm     81.4% 0 in 0 W/m2
23:34 39 °F 33.6 °F 30.4 in Calm     81% 0 in 0 W/m2
23:39 39 °F 33.4 °F 30.4 in Calm     80% 0 in 0 W/m2
23:44 39.2 °F 33.6 °F 30.4 in Calm     80% 0 in 0 W/m2
23:49 39 °F 33.4 °F 30.4 in Calm     80.2% 0 in 0 W/m2
23:54 38.8 °F 33.4 °F 30.4 in Calm     80.8% 0 in 0 W/m2
23:59 38.8 °F 33.3 °F 30.4 in Calm     80% 0 in 0 W/m2
Juneau County Weather
Compliments of Weather Underground - 2 mb